PORT of BARI

Country: Italy Country: Italy (IT)
Latitude / Longitude: 41.136565° / 16.85811° Show on Map Show on Map
Local Time:  UTC +2
UN/LOCODE: ITBRI
Vessels in Port: 6
Expected Arrivals: 2

Recent Arrivals & Departures


Vessel Name
Arrival (UTC)
Arrival (LT)
Departure (UTC)
Departure (LT)
Vessel Type: Passenger Vessels  AF CLAUDIA PRIMA 2014-09-16 06:16:00 2014-09-16 08:16:00 2014-09-16 22:26:00 2014-09-17 00:26:00
Vessel Type: Passenger Vessels  BARI 2014-09-16 06:07:00 2014-09-16 08:07:00 2014-09-16 21:43:00 2014-09-16 23:43:00
Vessel Type: Passenger Vessels  DUBROVNIK 2014-09-16 05:30:00 2014-09-16 07:30:00 2014-09-16 20:13:00 2014-09-16 22:13:00
Vessel Type: Passenger Vessels  SUPERFAST I 2014-09-16 07:46:00 2014-09-16 09:46:00 2014-09-16 18:03:00 2014-09-16 20:03:00
Vessel Type: Passenger Vessels  COSTA FASCINOSA 2014-09-16 10:17:00 2014-09-16 12:17:00 2014-09-16 17:32:00 2014-09-16 19:32:00
Vessel Type: Yachts & Others  FIU 2014-09-12 05:00:00 2014-09-12 07:00:00 2014-09-16 09:10:00 2014-09-16 11:10:00
Vessel Type: Passenger Vessels  IERAPETRA L 2014-09-16 05:23:00 2014-09-16 07:23:00
Vessel Type: Passenger Vessels  SVETI STEFAN II 2014-09-15 05:17:00 2014-09-15 07:17:00 2014-09-15 21:49:00 2014-09-15 23:49:00
Vessel Type: Passenger Vessels  BRIDGE 2014-09-15 06:08:00 2014-09-15 08:08:00 2014-09-15 21:39:00 2014-09-15 23:39:00
Vessel Type: Passenger Vessels  AF FRANCESCA 2014-09-15 05:53:00 2014-09-15 07:53:00 2014-09-15 21:19:00 2014-09-15 23:19:00

Expected Arrivals


Vessel Name
Scheduled Arrival (UTC)
Scheduled Arrival (LT)
Estimated Arrival (UTC)
Estimated Arrival (LT)
Vessel Type: Cargo Vessels  LIBERTAS H 2014-09-16 17:00:00 2014-09-16 19:00:00 2014-09-17 02:08:00 2014-09-17 04:08:00
Vessel Type: Cargo Vessels  LUCKY TRADER 2014-09-21 20:00:00 2014-09-21 22:00:00 2014-09-21 09:15:00 2014-09-21 11:15:00

Wind Forecast


    
Time (UTC)
Speed
Direction
Temperature
2014-09-17 00:00:00 7 knots 333° 22°C
2014-09-17 03:00:00 9 knots 325° 21°C
2014-09-17 06:00:00 12 knots 315° 21°C
2014-09-17 09:00:00 10 knots 324° 21°C
2014-09-17 12:00:00 9 knots 359° 22°C
2014-09-17 15:00:00 8 knots 12° 22°C
2014-09-17 18:00:00 5 knots 357° 22°C
2014-09-17 21:00:00 5 knots 354° 22°C
2014-09-18 00:00:00 7 knots 357° 22°C
2014-09-18 03:00:00 7 knots 42° 22°C
2014-09-18 06:00:00 7 knots 61° 22°C
2014-09-18 09:00:00 8 knots 69° 22°C
2014-09-18 12:00:00 9 knots 79° 22°C
2014-09-18 15:00:00 9 knots 87° 22°C
2014-09-18 18:00:00 9 knots 101° 22°C
2014-09-18 21:00:00 7 knots 134° 22°C
2014-09-19 00:00:00 8 knots 153° 22°C